Time,TemperatureF,DewpointF,PressureIn,WindDirection,WindDirectionDegrees,WindSpeedMPH,WindSpeedGustMPH,Humidity,HourlyPrecipIn,Conditions,Clouds,dailyrainin,SoftwareType,DateUTC
2015-07-04 00:04:00,76.0,69.8,30.13,South,180,2.0,3.0,81,0.00,,SKC,0.00,VWS V15.00,2015-07-04 04:04:00,
2015-07-04 00:09:00,76.0,69.8,30.14,South,180,4.0,5.0,81,0.00,,SKC,0.00,VWS V15.00,2015-07-04 04:09:00,
2015-07-04 00:14:00,76.0,69.8,30.13,SSE,157,5.0,5.0,81,0.00,,SKC,0.00,VWS V15.00,2015-07-04 04:14:00,
2015-07-04 00:19:00,76.0,69.8,30.13,SE,135,4.0,5.0,81,0.00,,SKC,0.00,VWS V15.00,2015-07-04 04:19:00,
2015-07-04 00:24:00,76.0,69.8,30.13,SE,135,4.0,5.0,81,0.00,,SKC,0.00,VWS V15.00,2015-07-04 04:24:00,
2015-07-04 00:29:00,76.0,69.8,30.13,ESE,112,4.0,5.0,81,0.00,,SKC,0.00,VWS V15.00,2015-07-04 04:29:00,
2015-07-04 00:39:00,76.0,69.8,30.13,ESE,112,3.0,4.0,81,0.00,,SKC,0.00,VWS V15.00,2015-07-04 04:39:00,
2015-07-04 00:44:00,76.0,70.1,30.13,ESE,112,3.0,5.0,82,0.00,,SKC,0.00,VWS V15.00,2015-07-04 04:44:00,
2015-07-04 00:49:00,76.0,70.1,30.13,ESE,112,3.0,3.0,82,0.00,,SKC,0.00,VWS V15.00,2015-07-04 04:49:00,
2015-07-04 00:54:00,76.0,70.5,30.13,ESE,112,3.0,3.0,83,0.00,,SKC,0.00,VWS V15.00,2015-07-04 04:54:00,
2015-07-04 00:59:00,76.0,70.5,30.13,ESE,112,5.0,5.0,83,0.00,,SKC,0.00,VWS V15.00,2015-07-04 04:59:00,
2015-07-04 01:04:00,76.0,70.5,30.12,ESE,112,5.0,5.0,83,0.00,,SKC,0.00,VWS V15.00,2015-07-04 05:04:00,
2015-07-04 01:09:00,75.0,69.8,30.12,ESE,112,3.0,3.0,84,0.00,,SKC,0.00,VWS V15.00,2015-07-04 05:09:00,
2015-07-04 01:14:00,75.0,69.8,30.12,ESE,112,3.0,4.0,84,0.00,,SKC,0.00,VWS V15.00,2015-07-04 05:14:00,
2015-07-04 01:19:00,75.0,69.8,30.12,ESE,112,3.0,3.0,84,0.00,,SKC,0.00,VWS V15.00,2015-07-04 05:19:00,
2015-07-04 01:24:00,75.0,70.2,30.12,ESE,112,3.0,3.0,85,0.00,,SKC,0.00,VWS V15.00,2015-07-04 05:24:00,
2015-07-04 01:29:00,75.0,70.2,30.12,ESE,112,2.0,2.0,85,0.00,,SKC,0.00,VWS V15.00,2015-07-04 05:29:00,
2015-07-04 01:34:00,75.0,70.2,30.11,ESE,112,3.0,4.0,85,0.00,,SKC,0.00,VWS V15.00,2015-07-04 05:34:00,
2015-07-04 01:39:00,75.0,70.2,30.12,ESE,112,4.0,4.0,85,0.00,,SKC,0.00,VWS V15.00,2015-07-04 05:39:00,
2015-07-04 01:44:00,75.0,70.2,30.12,ESE,112,2.0,3.0,85,0.00,,SKC,0.00,VWS V15.00,2015-07-04 05:44:00,
2015-07-04 01:49:00,75.0,70.2,30.12,ESE,112,0.0,0.0,85,0.00,,SKC,0.00,VWS V15.00,2015-07-04 05:49:00,
2015-07-04 01:54:00,75.0,70.5,30.12,ESE,112,0.0,0.0,86,0.00,,SKC,0.00,VWS V15.00,2015-07-04 05:54:00,
2015-07-04 01:59:00,75.0,70.5,30.12,ESE,112,3.0,3.0,86,0.00,,SKC,0.00,VWS V15.00,2015-07-04 05:59:00,
2015-07-04 02:04:00,75.0,70.5,30.11,SSW,202,0.0,1.0,86,0.00,,SKC,0.00,VWS V15.00,2015-07-04 06:04:00,
2015-07-04 02:09:00,75.0,70.2,30.11,SSE,157,2.0,3.0,85,0.00,,SKC,0.00,VWS V15.00,2015-07-04 06:09:00,
2015-07-04 02:14:00,75.0,70.2,30.11,SE,135,2.0,3.0,85,0.00,,SKC,0.00,VWS V15.00,2015-07-04 06:14:00,
2015-07-04 02:19:00,75.0,70.2,30.11,South,180,3.0,3.0,85,0.00,,SKC,0.00,VWS V15.00,2015-07-04 06:19:00,
2015-07-04 02:24:00,75.0,70.5,30.11,SSE,157,3.0,3.0,86,0.00,,SKC,0.00,VWS V15.00,2015-07-04 06:24:00,
2015-07-04 02:29:00,75.0,70.5,30.10,South,180,2.0,2.0,86,0.00,,SKC,0.00,VWS V15.00,2015-07-04 06:29:00,
2015-07-04 02:34:00,74.0,69.6,30.11,SSW,202,2.0,3.0,86,0.00,,SKC,0.00,VWS V15.00,2015-07-04 06:34:00,
2015-07-04 02:39:00,74.0,69.6,30.10,South,180,2.0,3.0,86,0.00,,SKC,0.00,VWS V15.00,2015-07-04 06:39:00,
2015-07-04 02:44:00,74.0,69.9,30.11,SE,135,3.0,3.0,87,0.00,,SKC,0.00,VWS V15.00,2015-07-04 06:44:00,
2015-07-04 02:49:00,75.0,70.9,30.10,ESE,112,4.0,4.0,87,0.00,,SKC,0.00,VWS V15.00,2015-07-04 06:49:00,
2015-07-04 02:54:00,75.0,70.9,30.10,ESE,112,4.0,4.0,87,0.00,,SKC,0.00,VWS V15.00,2015-07-04 06:54:00,
2015-07-04 02:59:00,75.0,70.9,30.10,South,180,3.0,4.0,87,0.00,,SKC,0.00,VWS V15.00,2015-07-04 06:59:00,
2015-07-04 03:04:00,75.0,70.9,30.10,ESE,112,4.0,4.0,87,0.00,,SKC,0.00,VWS V15.00,2015-07-04 07:04:00,
2015-07-04 03:09:00,75.0,71.2,30.10,ESE,112,5.0,5.0,88,0.00,,SKC,0.00,VWS V15.00,2015-07-04 07:09:00,
2015-07-04 03:14:00,74.0,70.2,30.11,ESE,112,4.0,4.0,88,0.00,,SKC,0.00,VWS V15.00,2015-07-04 07:14:00,
2015-07-04 03:19:00,74.0,70.2,30.11,SSE,157,3.0,3.0,88,0.00,,SKC,0.00,VWS V15.00,2015-07-04 07:19:00,
2015-07-04 03:24:00,74.0,70.2,30.10,SE,135,4.0,4.0,88,0.00,,SKC,0.00,VWS V15.00,2015-07-04 07:24:00,
2015-07-04 03:29:00,74.0,70.2,30.11,ESE,112,3.0,3.0,88,0.00,,SKC,0.00,VWS V15.00,2015-07-04 07:29:00,
2015-07-04 03:34:00,75.0,71.2,30.10,ESE,112,5.0,5.0,88,0.00,,SKC,0.00,VWS V15.00,2015-07-04 07:34:00,
2015-07-04 03:39:00,75.0,70.9,30.10,ESE,112,7.0,7.0,87,0.00,,SKC,0.00,VWS V15.00,2015-07-04 07:39:00,
2015-07-04 03:44:00,75.0,70.9,30.10,ESE,112,5.0,6.0,87,0.00,,SKC,0.00,VWS V15.00,2015-07-04 07:44:00,
2015-07-04 03:49:00,75.0,70.9,30.10,ESE,112,4.0,4.0,87,0.00,,SKC,0.00,VWS V15.00,2015-07-04 07:49:00,
2015-07-04 03:54:00,74.0,70.2,30.09,ESE,112,2.0,3.0,88,0.00,,SKC,0.00,VWS V15.00,2015-07-04 07:54:00,
2015-07-04 03:59:00,74.0,70.2,30.09,ESE,112,5.0,5.0,88,0.00,,SKC,0.00,VWS V15.00,2015-07-04 07:59:00,
2015-07-04 04:04:00,74.0,70.6,30.09,ESE,112,3.0,3.0,89,0.00,,SKC,0.00,VWS V15.00,2015-07-04 08:04:00,
2015-07-04 04:09:00,74.0,70.6,30.09,SE,135,3.0,3.0,89,0.00,,SKC,0.00,VWS V15.00,2015-07-04 08:09:00,
2015-07-04 04:14:00,74.0,70.6,30.09,ESE,112,2.0,3.0,89,0.00,,SKC,0.00,VWS V15.00,2015-07-04 08:14:00,
2015-07-04 04:19:00,74.0,70.2,30.09,SE,135,3.0,3.0,88,0.00,,SKC,0.00,VWS V15.00,2015-07-04 08:19:00,
2015-07-04 04:24:00,74.0,70.2,30.09,SE,135,2.0,2.0,88,0.00,,SKC,0.00,VWS V15.00,2015-07-04 08:24:00,
2015-07-04 04:29:00,74.0,70.2,30.09,ESE,112,4.0,4.0,88,0.00,,SKC,0.00,VWS V15.00,2015-07-04 08:29:00,
2015-07-04 04:34:00,74.0,69.9,30.09,SE,135,4.0,4.0,87,0.00,,SKC,0.00,VWS V15.00,2015-07-04 08:34:00,
2015-07-04 04:39:00,75.0,70.9,30.10,ESE,112,5.0,5.0,87,0.00,,SKC,0.00,VWS V15.00,2015-07-04 08:39:00,
2015-07-04 04:44:00,75.0,70.9,30.10,SE,135,3.0,3.0,87,0.00,,SKC,0.00,VWS V15.00,2015-07-04 08:44:00,
2015-07-04 04:49:00,75.0,70.9,30.10,ESE,112,6.0,6.0,87,0.00,,SKC,0.00,VWS V15.00,2015-07-04 08:49:00,
2015-07-04 04:54:00,75.0,70.9,30.09,ESE,112,5.0,5.0,87,0.00,,SKC,0.00,VWS V15.00,2015-07-04 08:54:00,
2015-07-04 05:04:00,75.0,70.9,30.09,ESE,112,4.0,4.0,87,0.00,,SKC,0.00,VWS V15.00,2015-07-04 09:04:00,
2015-07-04 05:09:00,74.0,69.9,30.09,ESE,112,3.0,4.0,87,0.00,,SKC,0.00,VWS V15.00,2015-07-04 09:09:00,
2015-07-04 05:14:00,74.0,69.9,30.10,SE,135,1.0,2.0,87,0.00,,SKC,0.00,VWS V15.00,2015-07-04 09:14:00,
2015-07-04 05:19:00,74.0,69.9,30.10,SSE,157,4.0,4.0,87,0.00,,SKC,0.00,VWS V15.00,2015-07-04 09:19:00,
2015-07-04 05:24:00,74.0,69.9,30.10,South,180,3.0,3.0,87,0.00,,SKC,0.00,VWS V15.00,2015-07-04 09:24:00,
2015-07-04 05:29:00,74.0,69.9,30.10,South,180,3.0,3.0,87,0.00,,SKC,0.00,VWS V15.00,2015-07-04 09:29:00,
2015-07-04 05:34:00,74.0,69.9,30.11,South,180,0.0,0.0,87,0.00,,SKC,0.00,VWS V15.00,2015-07-04 09:34:00,
2015-07-04 05:39:00,74.0,69.9,30.10,South,180,0.0,0.0,87,0.00,,SKC,0.00,VWS V15.00,2015-07-04 09:39:00,
2015-07-04 05:44:00,74.0,69.9,30.11,South,180,0.0,0.0,87,0.00,,SKC,0.00,VWS V15.00,2015-07-04 09:44:00,
2015-07-04 05:49:00,74.0,70.2,30.11,SSE,157,0.0,0.0,88,0.00,,SKC,0.00,VWS V15.00,2015-07-04 09:49:00,
2015-07-04 05:54:00,74.0,70.2,30.11,SSE,157,0.0,0.0,88,0.00,,SKC,0.00,VWS V15.00,2015-07-04 09:54:00,
2015-07-04 05:59:00,74.0,70.2,30.11,SSE,157,0.0,0.0,88,0.00,,SKC,0.00,VWS V15.00,2015-07-04 09:59:00,
2015-07-04 06:04:00,74.0,70.6,30.11,SSE,157,1.0,1.0,89,0.00,,SKC,0.00,VWS V15.00,2015-07-04 10:04:00,
2015-07-04 06:09:00,74.0,70.6,30.11,SSE,157,0.0,0.0,89,0.00,,SKC,0.00,VWS V15.00,2015-07-04 10:09:00,
2015-07-04 06:14:00,74.0,70.6,30.11,NNE,22,3.0,3.0,89,0.00,,SKC,0.00,VWS V15.00,2015-07-04 10:14:00,
2015-07-04 06:19:00,74.0,70.6,30.12,NNE,22,1.0,1.0,89,0.00,,SKC,0.00,VWS V15.00,2015-07-04 10:19:00,
2015-07-04 06:24:00,74.0,70.6,30.12,NNE,22,3.0,3.0,89,0.00,,SKC,0.00,VWS V15.00,2015-07-04 10:24:00,
2015-07-04 06:29:00,74.0,70.2,30.12,South,180,3.0,3.0,88,0.00,,SKC,0.00,VWS V15.00,2015-07-04 10:29:00,
2015-07-04 06:34:00,74.0,70.2,30.12,South,180,2.0,2.0,88,0.00,,SKC,0.00,VWS V15.00,2015-07-04 10:34:00,
2015-07-04 06:39:00,74.0,70.6,30.12,South,180,3.0,3.0,89,0.00,,SKC,0.00,VWS V15.00,2015-07-04 10:39:00,
2015-07-04 06:44:00,73.0,69.6,30.13,ESE,112,3.0,3.0,89,0.00,,SKC,0.00,VWS V15.00,2015-07-04 10:44:00,
2015-07-04 06:49:00,73.0,69.9,30.13,ESE,112,2.0,2.0,90,0.00,,SKC,0.00,VWS V15.00,2015-07-04 10:49:00,
2015-07-04 06:54:00,73.0,69.9,30.13,ESE,112,0.0,0.0,90,0.00,,SKC,0.00,VWS V15.00,2015-07-04 10:54:00,
2015-07-04 06:59:00,73.0,70.2,30.13,ESE,112,0.0,0.0,91,0.00,,SKC,0.00,VWS V15.00,2015-07-04 10:59:00,
2015-07-04 07:04:00,73.0,70.2,30.13,ESE,112,2.0,2.0,91,0.00,,SKC,0.00,VWS V15.00,2015-07-04 11:04:00,
2015-07-04 07:09:00,73.0,70.2,30.13,ESE,112,2.0,2.0,91,0.00,,SKC,0.00,VWS V15.00,2015-07-04 11:09:00,
2015-07-04 07:14:00,73.0,70.2,30.13,ESE,112,0.0,0.0,91,0.00,,SKC,0.00,VWS V15.00,2015-07-04 11:14:00,
2015-07-04 07:19:00,73.0,70.2,30.14,ESE,112,2.0,2.0,91,0.00,,SKC,0.00,VWS V15.00,2015-07-04 11:19:00,
2015-07-04 07:24:00,73.0,70.2,30.14,ESE,112,1.0,1.0,91,0.00,,SKC,0.00,VWS V15.00,2015-07-04 11:24:00,
2015-07-04 07:29:00,73.0,70.2,30.13,ESE,112,2.0,2.0,91,0.00,,SKC,0.00,VWS V15.00,2015-07-04 11:29:00,
2015-07-04 07:34:00,74.0,70.9,30.13,ESE,112,3.0,3.0,90,0.00,,SKC,0.00,VWS V15.00,2015-07-04 11:34:00,
2015-07-04 07:39:00,74.0,70.9,30.13,ESE,112,2.0,2.0,90,0.00,,SKC,0.00,VWS V15.00,2015-07-04 11:39:00,
2015-07-04 07:44:00,74.0,70.9,30.14,ESE,112,3.0,4.0,90,0.00,,SKC,0.00,VWS V15.00,2015-07-04 11:44:00,
2015-07-04 07:49:00,74.0,70.6,30.14,ESE,112,3.0,4.0,89,0.00,,SKC,0.00,VWS V15.00,2015-07-04 11:49:00,
2015-07-04 07:54:00,74.0,70.6,30.14,ESE,112,5.0,5.0,89,0.00,,SKC,0.00,VWS V15.00,2015-07-04 11:54:00,
2015-07-04 07:59:00,75.0,71.2,30.13,ESE,112,4.0,4.0,88,0.00,,SKC,0.00,VWS V15.00,2015-07-04 11:59:00,
2015-07-04 08:04:00,75.0,71.2,30.13,ESE,112,3.0,3.0,88,0.00,,SKC,0.00,VWS V15.00,2015-07-04 12:04:00,
2015-07-04 08:09:00,75.0,70.9,30.14,ESE,112,4.0,4.0,87,0.00,,SKC,0.00,VWS V15.00,2015-07-04 12:09:00,
2015-07-04 08:14:00,76.0,71.5,30.13,SE,135,5.0,5.0,86,0.00,,SKC,0.00,VWS V15.00,2015-07-04 12:14:00,
2015-07-04 08:19:00,76.0,71.2,30.14,ESE,112,4.0,4.0,85,0.00,,SKC,0.00,VWS V15.00,2015-07-04 12:19:00,
2015-07-04 08:24:00,76.0,70.8,30.14,ESE,112,4.0,4.0,84,0.00,,SKC,0.00,VWS V15.00,2015-07-04 12:24:00,
2015-07-04 08:29:00,77.0,71.4,30.14,SE,135,4.0,5.0,83,0.00,,SKC,0.00,VWS V15.00,2015-07-04 12:29:00,
2015-07-04 08:34:00,77.0,71.1,30.14,SE,135,5.0,5.0,82,0.00,,SKC,0.00,VWS V15.00,2015-07-04 12:34:00,
2015-07-04 08:39:00,78.0,72.1,30.15,ESE,112,5.0,5.0,82,0.00,,SKC,0.00,VWS V15.00,2015-07-04 12:39:00,
2015-07-04 08:44:00,78.0,71.7,30.14,SE,135,4.0,4.0,81,0.00,,SKC,0.00,VWS V15.00,2015-07-04 12:44:00,
2015-07-04 08:49:00,78.0,71.3,30.14,ESE,112,4.0,5.0,80,0.00,,SKC,0.00,VWS V15.00,2015-07-04 12:49:00,
2015-07-04 08:54:00,79.0,72.3,30.15,ESE,112,6.0,6.0,80,0.00,,SKC,0.00,VWS V15.00,2015-07-04 12:54:00,
2015-07-04 08:59:00,79.0,72.3,30.15,ESE,112,6.0,6.0,80,0.00,,SKC,0.00,VWS V15.00,2015-07-04 12:59:00,
2015-07-04 09:04:00,79.0,71.9,30.15,ESE,112,8.0,8.0,79,0.00,,SKC,0.00,VWS V15.00,2015-07-04 13:04:00,
2015-07-04 09:09:00,79.0,71.9,30.15,ESE,112,6.0,6.0,79,0.00,,SKC,0.00,VWS V15.00,2015-07-04 13:09:00,
2015-07-04 09:14:00,80.0,72.9,30.15,SE,135,6.0,7.0,79,0.00,,SKC,0.00,VWS V15.00,2015-07-04 13:14:00,
2015-07-04 09:19:00,80.0,72.5,30.15,SE,135,0.0,4.0,78,0.00,,SKC,0.00,VWS V15.00,2015-07-04 13:19:00,
2015-07-04 09:24:00,80.0,72.5,30.14,ESE,112,4.0,4.0,78,0.00,,SKC,0.00,VWS V15.00,2015-07-04 13:24:00,
2015-07-04 09:29:00,81.0,73.1,30.14,ESE,112,3.0,3.0,77,0.00,,SKC,0.00,VWS V15.00,2015-07-04 13:29:00,
2015-07-04 09:34:00,81.0,73.1,30.14,ESE,112,6.0,7.0,77,0.00,,SKC,0.00,VWS V15.00,2015-07-04 13:34:00,
2015-07-04 09:39:00,81.0,72.7,30.15,ESE,112,8.0,8.0,76,0.00,,SKC,0.00,VWS V15.00,2015-07-04 13:39:00,
2015-07-04 09:44:00,82.0,73.7,30.15,South,180,4.0,6.0,76,0.00,,SKC,0.00,VWS V15.00,2015-07-04 13:44:00,
2015-07-04 09:49:00,82.0,73.3,30.15,SSE,157,2.0,2.0,75,0.00,,SKC,0.00,VWS V15.00,2015-07-04 13:49:00,
2015-07-04 09:54:00,83.0,73.9,30.15,ESE,112,3.0,6.0,74,0.00,,SKC,0.00,VWS V15.00,2015-07-04 13:54:00,
2015-07-04 09:59:00,84.0,74.4,30.14,ESE,112,0.0,2.0,73,0.00,,SKC,0.00,VWS V15.00,2015-07-04 13:59:00,
2015-07-04 10:04:00,84.0,74.0,30.14,South,180,2.0,5.0,72,0.00,,SKC,0.00,VWS V15.00,2015-07-04 14:04:00,
2015-07-04 10:14:00,84.0,73.6,30.15,ESE,112,6.0,7.0,71,0.00,,SKC,0.00,VWS V15.00,2015-07-04 14:14:00,
2015-07-04 10:19:00,83.0,73.1,30.14,SSE,157,6.0,7.0,72,0.00,,SKC,0.00,VWS V15.00,2015-07-04 14:19:00,
2015-07-04 10:24:00,83.0,73.5,30.15,ESE,112,4.0,7.0,73,0.00,,SKC,0.00,VWS V15.00,2015-07-04 14:24:00,
2015-07-04 10:29:00,84.0,74.4,30.15,ESE,112,4.0,4.0,73,0.00,,SKC,0.00,VWS V15.00,2015-07-04 14:29:00,
2015-07-04 10:34:00,85.0,75.0,30.14,NNE,22,2.0,3.0,72,0.00,,SKC,0.00,VWS V15.00,2015-07-04 14:34:00,
2015-07-04 10:39:00,86.0,75.5,30.15,ESE,112,4.0,4.0,71,0.00,,SKC,0.00,VWS V15.00,2015-07-04 14:39:00,
2015-07-04 10:44:00,87.0,75.6,30.15,SSE,157,4.0,4.0,69,0.00,,SKC,0.00,VWS V15.00,2015-07-04 14:44:00,
2015-07-04 10:49:00,87.0,74.7,30.15,SSE,157,5.0,6.0,67,0.00,,SKC,0.00,VWS V15.00,2015-07-04 14:49:00,
2015-07-04 10:54:00,88.0,74.8,30.15,SSW,202,2.0,3.0,65,0.00,,SKC,0.00,VWS V15.00,2015-07-04 14:54:00,
2015-07-04 10:59:00,89.0,75.2,30.16,SSW,202,3.0,6.0,64,0.00,,SKC,0.00,VWS V15.00,2015-07-04 14:59:00,
2015-07-04 11:04:00,89.0,74.8,30.15,SW,225,5.0,5.0,63,0.00,,SKC,0.00,VWS V15.00,2015-07-04 15:04:00,
2015-07-04 11:09:00,89.0,74.8,30.15,South,180,0.0,3.0,63,0.00,,SKC,0.00,VWS V15.00,2015-07-04 15:09:00,
2015-07-04 11:14:00,89.0,74.3,30.15,East,90,4.0,7.0,62,0.00,,SKC,0.00,VWS V15.00,2015-07-04 15:14:00,
2015-07-04 11:19:00,89.0,74.8,30.15,SSE,157,3.0,3.0,63,0.00,,SKC,0.00,VWS V15.00,2015-07-04 15:19:00,
2015-07-04 11:24:00,89.0,74.8,30.15,SSE,157,8.0,8.0,63,0.00,,SKC,0.00,VWS V15.00,2015-07-04 15:24:00,
2015-07-04 11:29:00,89.0,73.8,30.15,SSE,157,3.0,7.0,61,0.00,,SKC,0.00,VWS V15.00,2015-07-04 15:29:00,
2015-07-04 11:34:00,89.0,72.8,30.15,South,180,2.0,5.0,59,0.00,,SKC,0.00,VWS V15.00,2015-07-04 15:34:00,
2015-07-04 11:39:00,89.0,72.3,30.15,SE,135,5.0,6.0,58,0.00,,SKC,0.00,VWS V15.00,2015-07-04 15:39:00,
2015-07-04 11:44:00,89.0,72.3,30.15,SSE,157,5.0,6.0,58,0.00,,SKC,0.00,VWS V15.00,2015-07-04 15:44:00,
2015-07-04 11:49:00,90.0,72.7,30.16,SE,135,2.0,2.0,57,0.00,,SKC,0.00,VWS V15.00,2015-07-04 15:49:00,
2015-07-04 11:54:00,90.0,72.2,30.15,ESE,112,7.0,10.0,56,0.00,,SKC,0.00,VWS V15.00,2015-07-04 15:54:00,
2015-07-04 11:59:00,89.0,72.3,30.15,ESE,112,6.0,6.0,58,0.00,,SKC,0.00,VWS V15.00,2015-07-04 15:59:00,
2015-07-04 12:04:00,88.0,71.9,30.15,South,180,3.0,7.0,59,0.00,,SKC,0.00,VWS V15.00,2015-07-04 16:04:00,
2015-07-04 12:09:00,88.0,71.9,30.15,SE,135,9.0,9.0,59,0.00,,SKC,0.00,VWS V15.00,2015-07-04 16:09:00,
2015-07-04 12:14:00,88.0,71.4,30.15,SSE,157,3.0,4.0,58,0.00,,SKC,0.00,VWS V15.00,2015-07-04 16:14:00,
2015-07-04 12:19:00,89.0,72.3,30.15,ESE,112,7.0,7.0,58,0.00,,SKC,0.00,VWS V15.00,2015-07-04 16:19:00,
2015-07-04 12:24:00,90.0,72.7,30.15,ESE,112,3.0,4.0,57,0.00,,SKC,0.00,VWS V15.00,2015-07-04 16:24:00,
2015-07-04 12:29:00,89.0,71.3,30.15,ESE,112,3.0,6.0,56,0.00,,SKC,0.00,VWS V15.00,2015-07-04 16:29:00,
2015-07-04 12:34:00,89.0,71.3,30.15,SE,135,8.0,11.0,56,0.00,,SKC,0.00,VWS V15.00,2015-07-04 16:34:00,
2015-07-04 12:39:00,89.0,71.8,30.15,SSE,157,5.0,5.0,57,0.00,,SKC,0.00,VWS V15.00,2015-07-04 16:39:00,
2015-07-04 12:44:00,89.0,71.8,30.15,SSE,157,0.0,0.0,57,0.00,,SKC,0.00,VWS V15.00,2015-07-04 16:44:00,
2015-07-04 12:49:00,90.0,71.7,30.15,ESE,112,2.0,2.0,55,0.00,,SKC,0.00,VWS V15.00,2015-07-04 16:49:00,
2015-07-04 12:54:00,92.0,72.4,30.14,South,180,4.0,7.0,53,0.00,,SKC,0.00,VWS V15.00,2015-07-04 16:54:00,
2015-07-04 12:59:00,92.0,71.9,30.14,SSE,157,4.0,4.0,52,0.00,,SKC,0.00,VWS V15.00,2015-07-04 16:59:00,
2015-07-04 13:04:00,92.0,70.7,30.15,SSW,202,3.0,4.0,50,0.00,,SKC,0.00,VWS V15.00,2015-07-04 17:04:00,
2015-07-04 13:09:00,92.0,70.1,30.14,SSE,157,2.0,2.0,49,0.00,,SKC,0.00,VWS V15.00,2015-07-04 17:09:00,
2015-07-04 13:14:00,93.0,70.4,30.14,ENE,67,1.0,4.0,48,0.00,,SKC,0.00,VWS V15.00,2015-07-04 17:14:00,
2015-07-04 13:19:00,93.0,70.4,30.14,SSW,202,1.0,5.0,48,0.00,,SKC,0.00,VWS V15.00,2015-07-04 17:19:00,
2015-07-04 13:24:00,92.0,70.7,30.14,ESE,112,9.0,11.0,50,0.00,,SKC,0.00,VWS V15.00,2015-07-04 17:24:00,
2015-07-04 13:29:00,90.0,70.0,30.13,SE,135,7.0,9.0,52,0.00,,SKC,0.00,VWS V15.00,2015-07-04 17:29:00,
2015-07-04 13:34:00,90.0,70.6,30.13,SSW,202,1.0,2.0,53,0.00,,SKC,0.00,VWS V15.00,2015-07-04 17:34:00,
2015-07-04 13:39:00,92.0,71.9,30.13,SSE,157,6.0,6.0,52,0.00,,SKC,0.00,VWS V15.00,2015-07-04 17:39:00,
2015-07-04 13:44:00,92.0,71.3,30.13,ESE,112,8.0,9.0,51,0.00,,SKC,0.00,VWS V15.00,2015-07-04 17:44:00,
2015-07-04 13:49:00,90.0,69.5,30.13,ESE,112,3.0,5.0,51,0.00,,SKC,0.00,VWS V15.00,2015-07-04 17:49:00,
2015-07-04 13:54:00,90.0,70.0,30.13,SE,135,0.0,0.0,52,0.00,,SKC,0.00,VWS V15.00,2015-07-04 17:54:00,
2015-07-04 13:59:00,90.0,69.5,30.12,SSE,157,0.0,3.0,51,0.00,,SKC,0.00,VWS V15.00,2015-07-04 17:59:00,
2015-07-04 14:04:00,92.0,70.1,30.12,SE,135,7.0,8.0,49,0.00,,SKC,0.00,VWS V15.00,2015-07-04 18:04:00,
2015-07-04 14:08:00,92.0,68.9,30.12,ESE,112,4.0,4.0,47,0.00,,SKC,0.00,VWS V15.00,2015-07-04 18:08:00,
2015-07-04 14:14:00,91.0,68.6,30.12,SE,135,2.0,3.0,48,0.00,,SKC,0.00,VWS V15.00,2015-07-04 18:14:00,
2015-07-04 14:19:00,92.0,69.5,30.12,ESE,112,3.0,7.0,48,0.00,,SKC,0.00,VWS V15.00,2015-07-04 18:19:00,
2015-07-04 14:24:00,93.0,69.2,30.12,ESE,112,3.0,6.0,46,0.00,,SKC,0.00,VWS V15.00,2015-07-04 18:24:00,
2015-07-04 14:28:00,92.0,68.3,30.11,ESE,112,7.0,9.0,46,0.00,,SKC,0.00,VWS V15.00,2015-07-04 18:28:00,
2015-07-04 14:33:00,93.0,68.5,30.12,South,180,7.0,7.0,45,0.00,,SKC,0.00,VWS V15.00,2015-07-04 18:33:00,
2015-07-04 14:38:00,93.0,67.9,30.11,WNW,292,2.0,3.0,44,0.00,,SKC,0.00,VWS V15.00,2015-07-04 18:38:00,
2015-07-04 14:43:00,93.0,67.2,30.11,South,180,5.0,6.0,43,0.00,,SKC,0.00,VWS V15.00,2015-07-04 18:43:00,
2015-07-04 14:48:00,93.0,67.2,30.10,SE,135,8.0,8.0,43,0.00,,SKC,0.00,VWS V15.00,2015-07-04 18:48:00,
2015-07-04 14:53:00,92.0,66.3,30.10,SSE,157,5.0,8.0,43,0.00,,SKC,0.00,VWS V15.00,2015-07-04 18:53:00,
2015-07-04 14:58:00,92.0,66.3,30.10,SE,135,3.0,4.0,43,0.00,,SKC,0.00,VWS V15.00,2015-07-04 18:58:00,
2015-07-04 15:03:00,92.0,67.6,30.10,ESE,112,4.0,6.0,45,0.00,,SKC,0.00,VWS V15.00,2015-07-04 19:03:00,
2015-07-04 15:08:00,93.0,68.5,30.10,SSW,202,5.0,7.0,45,0.00,,SKC,0.00,VWS V15.00,2015-07-04 19:08:00,
2015-07-04 15:13:00,94.0,68.8,30.10,SW,225,2.0,4.0,44,0.00,,SKC,0.00,VWS V15.00,2015-07-04 19:13:00,
2015-07-04 15:18:00,94.0,68.1,30.09,WSW,247,8.0,10.0,43,0.00,,SKC,0.00,VWS V15.00,2015-07-04 19:18:00,
2015-07-04 15:23:00,94.0,68.1,30.09,NNE,22,1.0,4.0,43,0.00,,SKC,0.00,VWS V15.00,2015-07-04 19:23:00,
2015-07-04 15:28:00,93.0,67.9,30.09,NNW,337,0.0,4.0,44,0.00,,SKC,0.00,VWS V15.00,2015-07-04 19:28:00,
2015-07-04 15:33:00,94.0,69.4,30.09,ESE,112,0.0,4.0,45,0.00,,SKC,0.00,VWS V15.00,2015-07-04 19:33:00,
2015-07-04 15:38:00,94.0,68.8,30.08,West,270,5.0,7.0,44,0.00,,SKC,0.00,VWS V15.00,2015-07-04 19:38:00,
2015-07-04 15:43:00,93.0,67.9,30.08,SW,225,1.0,4.0,44,0.00,,SKC,0.00,VWS V15.00,2015-07-04 19:43:00,
2015-07-04 15:48:00,93.0,67.9,30.08,WSW,247,4.0,9.0,44,0.00,,SKC,0.00,VWS V15.00,2015-07-04 19:48:00,
2015-07-04 15:53:00,94.0,68.8,30.08,WSW,247,8.0,9.0,44,0.00,,SKC,0.00,VWS V15.00,2015-07-04 19:53:00,
2015-07-04 15:58:00,93.0,67.9,30.08,SW,225,3.0,3.0,44,0.00,,SKC,0.00,VWS V15.00,2015-07-04 19:58:00,
2015-07-04 16:03:00,94.0,68.1,30.08,SW,225,1.0,6.0,43,0.00,,SKC,0.00,VWS V15.00,2015-07-04 20:03:00,